ROMMA est une association bénévole à but non lucratif. Votre soutien est indispensable : ADHERER à ROMMA ou FAIRE un DON

La Beaume - (05, Hautes Alpes)

Buëch (820 m)   Longitude: 5° 40' 9'' E   Latitude: 44° 32' 3'' N Station partenaire n°75
 

Détail journalier du     <<     >>

Température Precipitation Humidité Pression Vent Dir Rafale Dir. rafale Ensol.
Heure (°C) (mm) (%) (hPa) (km/h) (km/h) (min)
01:00 11.8062101811ONO23NO0
02:00 11.9058101811ONO24NO0
03:00 11.206210189ONO18O0
04:00 11.3063101813ONO29O0
05:00 9.806910187N21ONO0
06:00 9.806810187ONO18NO0
07:00 10.306610188ONO24O0
08:00 10.5065101811ONO27ONO0
09:00 11.2066101910N19NO0
10:00 12.7058101915N48NE60
11:00 14.2050101914N40O60
12:00 14.5047101919N44ENE60
13:00 15.8045101919N50E60
14:00 16.1046101917N50ONO60
15:00 16.0045101925NNE44NE60
16:00 15.9044101929NNE53ENE60
17:00 15.8044101919NNE40NNE60
18:00 14.6046101917NNE37NE30
19:00 13.6049101916N37N0
20:00 13.1056102019N42N0
21:00 12.4056101914N48O0
22:00 12.5055102012N32N0
23:00 12.4053102011NO24N0
minuit 11.8056102011NO23NO0

Graphique du 10-10-2019

 

Serveur OMMA